Time;durP1;ratioP1;P1;durP2;ratioP2;P2;SDS_P1;SDS_P2;PMS_P1;PMS_P2;Temp;Humidity;BMP_temperature;BMP_pressure;BME280_temperature;BME280_humidity;BME280_pressure;Samples;Min_cycle;Max_cycle;Signal;HPM_P1;HPM_P2
2021/01/28 00:00:03;;;;;;;;;;;;;;;-1.56;99.46;92701.69;1065188;55;20594;-83
2021/01/28 00:01:04;;;;;;;;;;;;;;;-1.55;99.11;92705.81;1062525;56;20190;-84
2021/01/28 00:02:04;;;;;;;;;;;;;;;-1.57;98.95;92699.41;1060562;56;20650;-83
2021/01/28 00:03:05;;;;;;;;;;;;;;;-1.54;99.12;92698.69;1060614;56;20253;-83
2021/01/28 00:04:06;;;;;;;;;;;;;;;-1.58;98.99;92701.28;1058182;56;20151;-84
2021/01/28 00:05:06;;;;;;;;;;;;;;;-1.53;99.15;92705.47;1060446;56;20178;-83
2021/01/28 00:06:08;;;;;;;;;;;;;;;-1.59;99.24;92699.00;1062555;56;20177;-83
2021/01/28 00:07:09;;;;;;;;;;;;;;;-1.60;99.37;92700.09;1057618;56;20165;-85
2021/01/28 00:08:09;;;;;;;;;;;;;;;-1.50;99.35;92698.75;1056116;56;20155;-84
2021/01/28 00:09:09;;;;;;;;;;;;;;;-1.55;98.97;92700.56;1058214;56;20171;-82
2021/01/28 00:10:10;;;;;;;;;;;;;;;-1.55;99.05;92697.19;1062541;56;20249;-85
2021/01/28 00:11:10;;;;;;;;;;;;;;;-1.57;99.28;92700.16;1064511;55;20270;-83
2021/01/28 00:12:11;;;;;;;;;;;;;;;-1.58;99.40;92701.28;1062511;56;20158;-84
2021/01/28 00:13:12;;;;;;;;;;;;;;;-1.53;99.37;92700.25;1060418;56;20236;-83
2021/01/28 00:14:12;;;;;;;;;;;;;;;-1.50;99.25;92701.38;1058280;56;20175;-82
2021/01/28 00:15:14;;;;;;;;;;;;;;;-1.56;99.03;92698.31;1058287;56;20174;-85
2021/01/28 00:16:15;;;;;;;;;;;;;;;-1.55;98.87;92697.19;1060320;56;21081;-84
2021/01/28 00:17:15;;;;;;;;;;;;;;;-1.54;99.10;92694.25;1058139;56;20166;-83
2021/01/28 00:18:16;;;;;;;;;;;;;;;-1.53;99.22;92693.13;1060653;56;20178;-82
2021/01/28 00:19:16;;;;;;;;;;;;;;;-1.57;99.17;92694.19;1060473;56;20134;-84
2021/01/28 00:20:19;;;;;;;;;;;;;;;-1.58;98.99;92696.03;1060406;56;20154;-84
2021/01/28 00:21:19;;;;;;;;;;;;;;;-1.58;98.95;92701.28;1061941;56;20157;-85
2021/01/28 00:22:19;;;;;;;;;;;;;;;-1.62;99.20;92697.84;1058287;56;20174;-83
2021/01/28 00:23:20;;;;;;;;;;;;;;;-1.59;99.20;92699.75;1060292;56;20197;-84
2021/01/28 00:24:20;;;;;;;;;;;;;;;-1.56;99.28;92701.69;1062498;56;20193;-83
2021/01/28 00:25:21;;;;;;;;;;;;;;;-1.56;99.33;92704.31;1062669;56;20158;-83
2021/01/28 00:26:21;;;;;;;;;;;;;;;-1.61;99.11;92703.84;1062577;56;20173;-83
2021/01/28 00:27:21;;;;;;;;;;;;;;;-1.58;99.23;92703.91;1060575;56;20166;-83
2021/01/28 00:28:22;;;;;;;;;;;;;;;-1.59;99.18;92699.00;1058294;56;20268;-81
2021/01/28 00:29:22;;;;;;;;;;;;;;;-1.62;99.20;92699.72;1060242;56;20209;-83
2021/01/28 00:30:25;;;;;;;;;;;;;;;-1.57;99.24;92700.16;1062552;56;20670;-85
2021/01/28 00:31:25;;;;;;;;;;;;;;;-1.59;99.22;92696.38;1060475;56;20155;-83
2021/01/28 00:32:25;;;;;;;;;;;;;;;-1.64;99.22;92694.06;1058181;56;20151;-82
2021/01/28 00:33:26;;;;;;;;;;;;;;;-1.63;99.25;92700.78;1058383;56;20159;-81
2021/01/28 00:34:26;;;;;;;;;;;;;;;-1.48;99.09;92697.31;1062750;56;20181;-82
2021/01/28 00:35:26;;;;;;;;;;;;;;;-1.50;98.76;92694.28;1062645;56;20155;-86
2021/01/28 00:36:27;;;;;;;;;;;;;;;-1.53;98.46;92692.37;1060147;56;20150;-84
2021/01/28 00:37:27;;;;;;;;;;;;;;;-1.57;98.52;92692.31;1062410;56;20259;-82
2021/01/28 00:38:29;;;;;;;;;;;;;;;-1.50;98.62;92690.91;1062494;56;20185;-83
2021/01/28 00:39:29;;;;;;;;;;;;;;;-1.61;98.83;92691.50;1060252;56;20151;-84
2021/01/28 00:40:30;;;;;;;;;;;;;;;-1.64;98.86;92689.56;1062527;56;20166;-83
2021/01/28 00:41:30;;;;;;;;;;;;;;;-1.62;99.26;92687.38;1058191;56;20159;-84
2021/01/28 00:42:31;;;;;;;;;;;;;;;-1.60;99.25;92681.78;1060341;56;20245;-84
2021/01/28 00:43:31;;;;;;;;;;;;;;;-1.70;99.18;92677.88;1062520;56;20158;-83
2021/01/28 00:44:31;;;;;;;;;;;;;;;-1.63;99.41;92677.97;1062522;56;20162;-82
2021/01/28 00:45:33;;;;;;;;;;;;;;;-1.61;99.40;92678.41;1058271;56;20167;-85
2021/01/28 00:46:33;;;;;;;;;;;;;;;-1.59;99.37;92681.41;1060287;56;20213;-85
2021/01/28 00:47:34;;;;;;;;;;;;;;;-1.57;99.36;92679.22;1060270;56;20209;-82
2021/01/28 00:48:34;;;;;;;;;;;;;;;-1.60;99.39;92677.28;1058161;56;20147;-84
2021/01/28 00:49:35;;;;;;;;;;;;;;;-1.62;99.49;92671.66;1060291;56;20151;-83
2021/01/28 00:50:36;;;;;;;;;;;;;;;-1.64;99.62;92680.94;1058093;56;20151;-84
2021/01/28 00:51:36;;;;;;;;;;;;;;;-1.56;99.06;92677.34;1056031;56;20159;-84
2021/01/28 00:52:39;;;;;;;;;;;;;;;-1.60;99.16;92671.28;1060003;56;20155;-84
2021/01/28 00:53:40;;;;;;;;;;;;;;;-1.59;99.36;92675.41;1057880;56;20193;-82
2021/01/28 00:54:40;;;;;;;;;;;;;;;-1.61;99.53;92677.63;1058220;56;20151;-84
2021/01/28 00:55:41;;;;;;;;;;;;;;;-1.59;99.44;92678.78;1058137;56;20170;-83
2021/01/28 00:56:41;;;;;;;;;;;;;;;-1.58;99.40;92680.31;1058034;56;20667;-84
2021/01/28 00:57:41;;;;;;;;;;;;;;;-1.58;99.53;92671.69;1060347;56;20169;-84
2021/01/28 00:58:42;;;;;;;;;;;;;;;-1.55;99.46;92679.59;1060331;56;20758;-84
2021/01/28 00:59:42;;;;;;;;;;;;;;;-1.55;99.31;92684.84;1060426;56;20627;-83
2021/01/28 01:00:43;;;;;;;;;;;;;;;-1.57;98.87;92675.84;1058240;56;20574;-82
2021/01/28 01:01:44;;;;;;;;;;;;;;;-1.53;99.18;92679.28;1057831;56;20178;-82
2021/01/28 01:02:44;;;;;;;;;;;;;;;-1.56;99.17;92677.34;1059790;56;20253;-83
2021/01/28 01:03:44;;;;;;;;;;;;;;;-1.58;98.99;92671.69;1059884;56;20169;-84
2021/01/28 01:04:44;;;;;;;;;;;;;;;-1.58;99.06;92674.31;1059842;56;20159;-84
2021/01/28 01:05:45;;;;;;;;;;;;;;;-1.65;99.15;92679.44;1059888;56;20139;-85
2021/01/28 01:06:46;;;;;;;;;;;;;;;-1.65;99.73;92676.81;1057667;56;20155;-83
2021/01/28 01:07:46;;;;;;;;;;;;;;;-1.60;99.69;92672.03;1057653;56;20666;-83
2021/01/28 01:08:47;;;;;;;;;;;;;;;-1.56;99.26;92665.00;1059693;56;20154;-83
2021/01/28 01:09:47;;;;;;;;;;;;;;;-1.49;99.41;92661.75;1061814;56;20174;-84
2021/01/28 01:10:49;;;;;;;;;;;;;;;-1.51;99.52;92658.69;1061765;56;20147;-83
2021/01/28 01:11:50;;;;;;;;;;;;;;;-1.47;99.37;92658.75;1059575;56;20264;-83
2021/01/28 01:12:51;;;;;;;;;;;;;;;-1.56;99.05;92651.91;1057711;56;20155;-84
2021/01/28 01:13:51;;;;;;;;;;;;;;;-1.59;99.08;92649.97;1059791;56;20151;-83
2021/01/28 01:14:51;;;;;;;;;;;;;;;-1.62;99.13;92636.84;1059820;56;20166;-85
2021/01/28 01:15:52;;;;;;;;;;;;;;;-1.56;99.26;92638.78;1060031;56;20154;-85
2021/01/28 01:16:52;;;;;;;;;;;;;;;-1.54;99.20;92631.34;1057546;56;20171;-84
2021/01/28 01:17:53;;;;;;;;;;;;;;;-1.53;99.15;92630.25;1057505;56;21192;-83
2021/01/28 01:18:54;;;;;;;;;;;;;;;-1.57;99.02;92626.06;1061977;56;20157;-86
2021/01/28 01:19:54;;;;;;;;;;;;;;;-1.57;99.04;92632.03;1061884;56;20158;-85
2021/01/28 01:20:55;;;;;;;;;;;;;;;-1.63;99.20;92635.28;1059752;56;20155;-82
2021/01/28 01:21:55;;;;;;;;;;;;;;;-1.65;99.14;92635.66;1061681;56;20213;-83
2021/01/28 01:22:56;;;;;;;;;;;;;;;-1.66;99.32;92646.50;1061840;56;20213;-84
2021/01/28 01:23:56;;;;;;;;;;;;;;;-1.69;99.07;92645.31;1059626;56;20155;-83
2021/01/28 01:24:56;;;;;;;;;;;;;;;-1.66;99.52;92649.12;1057491;56;20174;-83
2021/01/28 01:25:58;;;;;;;;;;;;;;;-1.50;99.32;92651.59;1057521;56;20146;-83
2021/01/28 01:26:58;;;;;;;;;;;;;;;-1.59;98.68;92664.94;1059639;56;20166;-84
2021/01/28 01:27:58;;;;;;;;;;;;;;;-1.60;98.84;92668.66;1059619;56;20690;-85
2021/01/28 01:28:59;;;;;;;;;;;;;;;-1.59;98.60;92662.31;1057303;56;20662;-84
2021/01/28 01:29:59;;;;;;;;;;;;;;;-1.53;98.74;92658.31;1055405;56;20345;-83
2021/01/28 01:30:59;;;;;;;;;;;;;;;-1.59;98.78;92657.81;1055282;56;20155;-84
2021/01/28 01:32:00;;;;;;;;;;;;;;;-1.61;98.68;92656.69;1059668;56;20256;-83
2021/01/28 01:33:01;;;;;;;;;;;;;;;-1.63;99.05;92657.00;1057784;56;20636;-83
2021/01/28 01:34:01;;;;;;;;;;;;;;;-1.65;99.20;92658.47;1059943;56;20162;-84
2021/01/28 01:35:03;;;;;;;;;;;;;;;-1.64;99.64;92663.38;1059825;56;20154;-83
2021/01/28 01:36:03;;;;;;;;;;;;;;;-1.61;99.30;92654.81;1060039;56;20177;-83
2021/01/28 01:37:03;;;;;;;;;;;;;;;-1.66;99.49;92657.72;1059784;56;20155;-83
2021/01/28 01:38:04;;;;;;;;;;;;;;;-1.66;99.33;92654.34;1059865;56;20313;-83
2021/01/28 01:39:04;;;;;;;;;;;;;;;-1.61;99.86;92654.06;1057668;56;20174;-82
2021/01/28 01:40:06;;;;;;;;;;;;;;;-1.61;99.52;92656.69;1055487;56;20187;-84
2021/01/28 01:41:07;;;;;;;;;;;;;;;-1.60;99.57;92653.69;1057357;56;20995;-85
2021/01/28 01:42:07;;;;;;;;;;;;;;;-1.60;99.44;92656.31;1057627;56;20159;-83
2021/01/28 01:43:09;;;;;;;;;;;;;;;-1.68;99.63;92646.06;1057481;56;20174;-83
2021/01/28 01:44:09;;;;;;;;;;;;;;;-1.58;99.67;92642.84;1061988;56;20635;-82
2021/01/28 01:45:10;;;;;;;;;;;;;;;-1.61;99.67;92651.44;1059577;56;20233;-84
2021/01/28 01:46:12;;;;;;;;;;;;;;;-1.64;99.61;92650.25;1059849;56;20301;-84
2021/01/28 01:47:21;;;;;;;;;;;;;;;-1.60;99.65;92647.69;1062026;56;20683;-83
2021/01/28 01:48:23;;;;;;;;;;;;;;;-1.61;99.47;92643.56;1057888;56;20185;-83
2021/01/28 01:49:24;;;;;;;;;;;;;;;-1.63;99.64;92646.53;1055452;56;20231;-83
2021/01/28 01:50:24;;;;;;;;;;;;;;;-1.50;99.48;92641.13;1059793;56;20619;-84
2021/01/28 01:51:28;;;;;;;;;;;;;;;-1.58;99.40;92643.63;1062011;56;20600;-82
2021/01/28 01:52:30;;;;;;;;;;;;;;;-1.61;99.52;92640.97;1061910;56;20185;-82
2021/01/28 01:53:33;;;;;;;;;;;;;;;-1.57;99.81;92639.91;1059395;56;20174;-84
2021/01/28 01:54:34;;;;;;;;;;;;;;;-1.55;99.54;92637.69;1059799;56;21061;-84
2021/01/28 01:55:36;;;;;;;;;;;;;;;-1.54;98.94;92633.97;1059716;56;20188;-84
2021/01/28 01:57:03;;;;;;;;;;;;;;;-1.57;99.40;92632.03;1061697;56;20225;-83
2021/01/28 01:58:05;;;;;;;;;;;;;;;-1.50;99.29;92635.88;1059038;56;20268;-84
2021/01/28 01:59:09;;;;;;;;;;;;;;;-1.46;99.24;92631.44;1059989;56;20615;-82
2021/01/28 02:00:12;;;;;;;;;;;;;;;-1.52;99.03;92629.13;1063960;55;20165;-85
2021/01/28 02:01:12;;;;;;;;;;;;;;;-1.55;98.89;92631.69;1059717;56;20247;-82
2021/01/28 02:02:15;;;;;;;;;;;;;;;-1.46;99.07;92621.72;1060015;56;20166;-86
2021/01/28 02:03:16;;;;;;;;;;;;;;;-1.52;98.82;92625.75;1059771;56;20178;-83
2021/01/28 02:04:17;;;;;;;;;;;;;;;-1.59;99.02;92621.13;1057726;56;20174;-84
2021/01/28 02:05:21;;;;;;;;;;;;;;;-1.60;99.10;92614.41;1059719;56;20169;-86
2021/01/28 02:06:34;;;;;;;;;;;;;;;-1.57;99.66;92618.19;1060087;56;20197;-82
2021/01/28 02:07:34;;;;;;;;;;;;;;;-1.50;98.85;92615.66;1058050;56;20672;-84
2021/01/28 02:08:35;;;;;;;;;;;;;;;-1.55;99.06;92616.72;1057604;56;20163;-85
2021/01/28 02:09:35;;;;;;;;;;;;;;;-1.53;98.88;92611.12;1061864;56;20177;-84
2021/01/28 02:10:35;;;;;;;;;;;;;;;-1.55;98.86;92605.47;1061980;56;20170;-84
2021/01/28 02:11:36;;;;;;;;;;;;;;;-1.56;99.34;92607.34;1061705;56;20177;-83
2021/01/28 02:12:37;;;;;;;;;;;;;;;-1.55;98.62;92611.47;1057548;56;20239;-84
2021/01/28 02:13:37;;;;;;;;;;;;;;;-1.57;99.50;92597.22;1059524;56;20178;-82
2021/01/28 02:14:38;;;;;;;;;;;;;;;-1.53;98.76;92595.41;1057582;56;20658;-83
2021/01/28 02:15:39;;;;;;;;;;;;;;;-1.52;98.91;92592.44;1055545;56;20163;-83
2021/01/28 02:16:51;;;;;;;;;;;;;;;-1.56;99.01;92586.38;1057593;56;21105;-83
2021/01/28 02:17:53;;;;;;;;;;;;;;;-1.55;99.05;92584.50;1059573;56;21002;-83
2021/01/28 02:18:55;;;;;;;;;;;;;;;-1.57;99.01;92579.63;1059826;56;20186;-82
2021/01/28 02:20:02;;;;;;;;;;;;;;;-1.55;99.00;92585.28;1061832;56;20157;-84
2021/01/28 02:21:20;;;;;;;;;;;;;;;-1.58;99.04;92580.75;1059699;56;20154;-81
2021/01/28 02:22:23;;;;;;;;;;;;;;;-1.60;99.07;92580.34;1056628;56;20202;-83
2021/01/28 02:23:30;;;;;;;;;;;;;;;-1.51;98.69;92577.47;1059793;56;20173;-83
2021/01/28 02:24:49;;;;;;;;;;;;;;;-1.54;98.81;92580.78;1061902;56;20178;-85
2021/01/28 02:25:51;;;;;;;;;;;;;;;-1.63;98.76;92575.03;1060278;56;20163;-84
2021/01/28 02:26:51;;;;;;;;;;;;;;;-1.62;98.90;92573.94;1059598;56;20182;-84
2021/01/28 02:27:54;;;;;;;;;;;;;;;-1.66;99.33;92568.66;1059753;56;20647;-83
2021/01/28 02:28:54;;;;;;;;;;;;;;;-1.66;99.03;92563.41;1055253;56;20644;-83
2021/01/28 02:29:55;;;;;;;;;;;;;;;-1.71;99.16;92571.56;1055363;56;20156;-85
2021/01/28 02:30:57;;;;;;;;;;;;;;;-1.72;99.21;92571.91;1057484;56;20178;-84
2021/01/28 02:31:58;;;;;;;;;;;;;;;-1.59;98.96;92560.88;1059732;56;20158;-83
2021/01/28 02:32:58;;;;;;;;;;;;;;;-1.59;98.81;92563.50;1057461;56;21008;-84
2021/01/28 02:33:59;;;;;;;;;;;;;;;-1.69;98.52;92560.72;1059595;56;20242;-85
2021/01/28 02:34:59;;;;;;;;;;;;;;;-1.75;98.75;92556.91;1061747;56;20147;-82
2021/01/28 02:35:59;;;;;;;;;;;;;;;-1.70;98.77;92557.34;1059576;56;20809;-84
2021/01/28 02:37:08;;;;;;;;;;;;;;;-1.66;98.57;92554.78;1059596;56;21062;-82
2021/01/28 02:38:10;;;;;;;;;;;;;;;-1.62;98.57;92553.75;1059800;56;20159;-83
2021/01/28 02:39:12;;;;;;;;;;;;;;;-1.77;98.74;92555.37;1059690;56;20174;-84
2021/01/28 02:40:13;;;;;;;;;;;;;;;-1.78;98.60;92551.25;1057296;56;20147;-84
2021/01/28 02:41:14;;;;;;;;;;;;;;;-1.67;98.46;92559.25;1057418;56;20246;-82
2021/01/28 02:42:14;;;;;;;;;;;;;;;-1.75;98.78;92549.06;1057457;56;20671;-83
2021/01/28 02:43:14;;;;;;;;;;;;;;;-1.74;98.48;92551.31;1059782;56;20233;-84
2021/01/28 02:44:15;;;;;;;;;;;;;;;-1.78;98.62;92548.63;1059492;56;20162;-84
2021/01/28 02:45:35;;;;;;;;;;;;;;;-1.81;98.75;92545.94;1057484;56;20178;-83
2021/01/28 02:46:36;;;;;;;;;;;;;;;-1.75;98.64;92544.56;1062214;56;20154;-82
2021/01/28 02:47:36;;;;;;;;;;;;;;;-1.77;98.97;92539.66;1059596;56;20711;-83
2021/01/28 02:48:37;;;;;;;;;;;;;;;-1.83;98.81;92541.06;1055273;56;20143;-83
2021/01/28 02:49:37;;;;;;;;;;;;;;;-1.81;98.86;92548.56;1057463;56;20600;-84
2021/01/28 02:50:38;;;;;;;;;;;;;;;-1.84;98.90;92539.56;1057435;56;20147;-82
2021/01/28 02:51:39;;;;;;;;;;;;;;;-1.89;99.03;92536.47;1057476;56;20181;-84
2021/01/28 02:52:39;;;;;;;;;;;;;;;-1.83;99.02;92540.31;1057229;56;20305;-84
2021/01/28 02:53:43;;;;;;;;;;;;;;;-1.89;99.06;92531.25;1055075;56;20625;-84
2021/01/28 02:54:45;;;;;;;;;;;;;;;-1.96;99.43;92537.13;1059755;56;20185;-83
2021/01/28 02:55:45;;;;;;;;;;;;;;;-1.89;99.86;92529.41;1059506;56;20627;-84
2021/01/28 02:56:46;;;;;;;;;;;;;;;-1.83;99.04;92530.59;1057675;56;20147;-83
2021/01/28 02:57:46;;;;;;;;;;;;;;;-1.87;98.71;92523.81;1055306;56;20253;-83
2021/01/28 02:58:47;;;;;;;;;;;;;;;-1.80;99.04;92524.66;1057505;56;20659;-84
2021/01/28 02:59:47;;;;;;;;;;;;;;;-1.78;98.50;92530.28;1061574;56;20169;-82
2021/01/28 03:00:47;;;;;;;;;;;;;;;-1.84;98.43;92531.72;1061550;56;20146;-84
2021/01/28 03:01:48;;;;;;;;;;;;;;;-1.83;98.55;92527.22;1059382;56;20241;-84
2021/01/28 03:02:51;;;;;;;;;;;;;;;-1.85;98.62;92524.94;1059631;56;20182;-84
2021/01/28 03:03:51;;;;;;;;;;;;;;;-1.78;99.11;92525.06;1055409;56;20596;-84
2021/01/28 03:04:52;;;;;;;;;;;;;;;-1.82;98.56;92528.72;1057557;56;20182;-83
2021/01/28 03:05:52;;;;;;;;;;;;;;;-1.82;98.66;92531.34;1059643;56;20260;-83
2021/01/28 03:06:53;;;;;;;;;;;;;;;-1.87;98.84;92531.66;1059576;56;20256;-82
2021/01/28 03:07:53;;;;;;;;;;;;;;;-1.93;99.18;92533.81;1057292;56;20170;-83
2021/01/28 03:08:54;;;;;;;;;;;;;;;-1.89;99.43;92524.16;1055287;56;20212;-83
2021/01/28 03:09:54;;;;;;;;;;;;;;;-1.82;99.07;92524.25;1059625;56;20261;-83
2021/01/28 03:10:55;;;;;;;;;;;;;;;-1.81;99.14;92520.50;1059621;56;20288;-84
2021/01/28 03:11:55;;;;;;;;;;;;;;;-1.81;98.75;92523.13;1059539;56;20166;-83
2021/01/28 03:12:55;;;;;;;;;;;;;;;-1.74;98.71;92522.50;1059355;56;20166;-83
2021/01/28 03:13:55;;;;;;;;;;;;;;;-1.81;98.63;92520.50;1061701;56;20638;-83
2021/01/28 03:14:56;;;;;;;;;;;;;;;-1.87;99.66;92516.69;1059541;56;20277;-85
2021/01/28 03:15:57;;;;;;;;;;;;;;;-1.82;99.29;92515.63;1057334;56;20151;-84
2021/01/28 03:16:57;;;;;;;;;;;;;;;-1.88;99.02;92517.06;1057327;56;20169;-82
2021/01/28 03:17:57;;;;;;;;;;;;;;;-1.90;99.49;92514.78;1055106;56;20195;-83
2021/01/28 03:18:58;;;;;;;;;;;;;;;-1.92;99.58;92517.00;1055310;56;20155;-84
2021/01/28 03:19:58;;;;;;;;;;;;;;;-1.90;99.95;92512.16;1059360;56;20158;-83
2021/01/28 03:20:58;;;;;;;;;;;;;;;-1.96;99.70;92518.81;1061411;56;20150;-84
2021/01/28 03:21:59;;;;;;;;;;;;;;;-1.94;100.00;92511.34;1059391;56;20174;-84
2021/01/28 03:22:59;;;;;;;;;;;;;;;-1.77;100.00;92505.59;1059634;56;20143;-83
2021/01/28 03:23:59;;;;;;;;;;;;;;;-1.86;100.00;92507.72;1059479;56;20189;-84
2021/01/28 03:24:59;;;;;;;;;;;;;;;-1.82;100.00;92513.78;1061585;56;20189;-83
2021/01/28 03:26:00;;;;;;;;;;;;;;;-1.87;99.94;92515.94;1061515;56;20599;-84
2021/01/28 03:27:00;;;;;;;;;;;;;;;-1.85;100.00;92511.09;1059488;56;20146;-83
2021/01/28 03:28:01;;;;;;;;;;;;;;;-1.87;100.00;92516.69;1059693;56;20244;-85
2021/01/28 03:29:01;;;;;;;;;;;;;;;-1.81;100.00;92504.03;1057265;56;20163;-83
2021/01/28 03:30:04;;;;;;;;;;;;;;;-1.76;100.00;92503.75;1059564;56;20202;-84
2021/01/28 03:31:04;;;;;;;;;;;;;;;-1.79;100.00;92507.09;1059476;56;20162;-83
2021/01/28 03:32:05;;;;;;;;;;;;;;;-1.87;100.00;92502.84;1055352;56;20574;-84
2021/01/28 03:33:06;;;;;;;;;;;;;;;-1.88;100.00;92507.34;1059572;56;20155;-83
2021/01/28 03:34:07;;;;;;;;;;;;;;;-1.88;100.00;92498.72;1061494;56;20172;-84
2021/01/28 03:35:07;;;;;;;;;;;;;;;-1.84;100.00;92492.44;1059407;56;20150;-83
2021/01/28 03:36:08;;;;;;;;;;;;;;;-1.85;100.00;92492.75;1057376;56;20166;-85
2021/01/28 03:37:09;;;;;;;;;;;;;;;-1.75;100.00;92494.03;1059459;56;20257;-83
2021/01/28 03:38:10;;;;;;;;;;;;;;;-1.73;100.00;92489.19;1059315;56;20627;-84
2021/01/28 03:39:10;;;;;;;;;;;;;;;-1.69;100.00;92485.50;1057407;56;20687;-82
2021/01/28 03:40:11;;;;;;;;;;;;;;;-1.66;100.00;92479.56;1055172;56;20183;-84
2021/01/28 03:41:11;;;;;;;;;;;;;;;-1.67;100.00;92477.28;1057298;56;20241;-83
2021/01/28 03:42:11;;;;;;;;;;;;;;;-1.61;100.00;92481.13;1061639;56;20173;-83
2021/01/28 03:43:12;;;;;;;;;;;;;;;-1.60;100.00;92477.41;1059393;56;20221;-83
2021/01/28 03:44:12;;;;;;;;;;;;;;;-1.56;100.00;92470.34;1059411;56;20573;-83
2021/01/28 03:45:13;;;;;;;;;;;;;;;-1.59;100.00;92471.78;1061687;56;20150;-85
2021/01/28 03:46:13;;;;;;;;;;;;;;;-1.61;100.00;92471.41;1061466;56;20165;-83
2021/01/28 03:47:14;;;;;;;;;;;;;;;-1.61;100.00;92473.28;1057266;56;20166;-83
2021/01/28 03:48:14;;;;;;;;;;;;;;;-1.54;100.00;92468.09;1059320;56;20209;-84
2021/01/28 03:49:14;;;;;;;;;;;;;;;-1.54;100.00;92470.72;1063571;56;20673;-83
2021/01/28 03:50:17;;;;;;;;;;;;;;;-1.54;100.00;92468.09;1061789;56;20170;-84
2021/01/28 03:51:17;;;;;;;;;;;;;;;-1.48;100.00;92469.31;1059460;56;20150;-83
2021/01/28 03:52:18;;;;;;;;;;;;;;;-1.50;100.00;92457.66;1057210;56;20249;-82
2021/01/28 03:53:18;;;;;;;;;;;;;;;-1.52;100.00;92458.78;1056868;56;21332;-83
2021/01/28 03:54:18;;;;;;;;;;;;;;;-1.44;100.00;92464.88;1057160;56;20273;-83
2021/01/28 03:55:19;;;;;;;;;;;;;;;-1.41;100.00;92458.91;1057394;56;20147;-82
2021/01/28 03:56:19;;;;;;;;;;;;;;;-1.41;100.00;92448.41;1059544;56;20146;-82
2021/01/28 03:57:19;;;;;;;;;;;;;;;-1.35;100.00;92448.88;1059527;56;20166;-84
2021/01/28 03:58:20;;;;;;;;;;;;;;;-1.39;100.00;92446.22;1059485;56;20173;-83
2021/01/28 03:59:20;;;;;;;;;;;;;;;-1.40;100.00;92443.97;1061557;56;20167;-84
2021/01/28 04:00:28;;;;;;;;;;;;;;;-1.44;100.00;92443.16;1061671;56;20214;-82
2021/01/28 04:01:28;;;;;;;;;;;;;;;-1.42;100.00;92446.91;1061532;56;20560;-84
2021/01/28 04:02:29;;;;;;;;;;;;;;;-1.43;100.00;92445.41;1059750;56;20296;-83
2021/01/28 04:03:29;;;;;;;;;;;;;;;-1.40;100.00;92436.09;1059501;56;20158;-84
2021/01/28 04:04:29;;;;;;;;;;;;;;;-1.40;100.00;92438.72;1059799;56;20697;-83
2021/01/28 04:05:30;;;;;;;;;;;;;;;-1.39;100.00;92434.97;1059564;56;20175;-83
2021/01/28 04:06:30;;;;;;;;;;;;;;;-1.33;100.00;92430.91;1061669;56;20257;-83
2021/01/28 04:07:30;;;;;;;;;;;;;;;-1.24;100.00;92423.53;1064075;56;20189;-84
2021/01/28 04:08:31;;;;;;;;;;;;;;;-1.27;100.00;92417.16;1059456;56;20143;-81
2021/01/28 04:09:31;;;;;;;;;;;;;;;-1.30;100.00;92410.00;1059723;56;20623;-84
2021/01/28 04:10:33;;;;;;;;;;;;;;;-1.23;100.00;92401.44;1059575;56;20249;-83
2021/01/28 04:11:34;;;;;;;;;;;;;;;-1.28;100.00;92401.75;1059389;56;20162;-83
2021/01/28 04:12:34;;;;;;;;;;;;;;;-1.28;100.00;92401.75;1059478;56;20646;-84
2021/01/28 04:13:34;;;;;;;;;;;;;;;-1.24;100.00;92407.03;1059631;56;20260;-82
2021/01/28 04:14:35;;;;;;;;;;;;;;;-1.27;100.00;92411.16;1061628;56;20201;-83
2021/01/28 04:15:35;;;;;;;;;;;;;;;-1.16;100.00;92408.63;1061555;56;20646;-83
2021/01/28 04:16:36;;;;;;;;;;;;;;;-1.26;100.00;92402.16;1059515;56;20154;-83
2021/01/28 04:17:36;;;;;;;;;;;;;;;-1.24;100.00;92399.19;1059236;56;20147;-83
2021/01/28 04:18:37;;;;;;;;;;;;;;;-1.19;100.00;92396.97;1061625;56;20232;-84
2021/01/28 04:19:37;;;;;;;;;;;;;;;-1.18;100.00;92397.75;1061312;56;20154;-83
2021/01/28 04:20:37;;;;;;;;;;;;;;;-1.16;100.00;92400.78;1061469;56;20216;-85
2021/01/28 04:21:38;;;;;;;;;;;;;;;-1.19;100.00;92396.97;1059348;56;20204;-83
2021/01/28 04:22:38;;;;;;;;;;;;;;;-1.23;100.00;92393.56;1057195;56;20179;-83
2021/01/28 04:23:38;;;;;;;;;;;;;;;-1.22;100.00;92389.84;1061422;56;20202;-83
2021/01/28 04:24:39;;;;;;;;;;;;;;;-1.23;100.00;92388.31;1061348;56;20166;-83
2021/01/28 04:25:40;;;;;;;;;;;;;;;-1.19;100.00;92391.75;1061413;56;20697;-84
2021/01/28 04:26:40;;;;;;;;;;;;;;;-1.23;100.00;92384.94;1059445;56;20170;-83
2021/01/28 04:27:40;;;;;;;;;;;;;;;-1.18;100.00;92380.16;1057272;56;20163;-85
2021/01/28 04:28:41;;;;;;;;;;;;;;;-1.15;100.00;92379.41;1059269;56;20174;-86
2021/01/28 04:29:41;;;;;;;;;;;;;;;-1.15;100.00;92376.81;1061462;56;20196;-83
2021/01/28 04:30:42;;;;;;;;;;;;;;;-1.02;100.00;92375.44;1061367;56;20186;-82
2021/01/28 04:31:42;;;;;;;;;;;;;;;-1.09;100.00;92379.87;1061236;56;20151;-83
2021/01/28 04:32:42;;;;;;;;;;;;;;;-1.04;100.00;92382.16;1061592;56;20718;-84
2021/01/28 04:33:43;;;;;;;;;;;;;;;-1.07;100.00;92381.00;1061477;56;20245;-83
2021/01/28 04:34:43;;;;;;;;;;;;;;;-1.09;100.00;92375.38;1059566;56;20146;-84
2021/01/28 04:35:43;;;;;;;;;;;;;;;-1.04;100.00;92377.66;1061609;56;20162;-82
2021/01/28 04:36:43;;;;;;;;;;;;;;;-1.02;100.00;92380.66;1059285;56;20233;-83
2021/01/28 04:37:44;;;;;;;;;;;;;;;-1.06;100.00;92376.50;1059851;56;20158;-84
2021/01/28 04:38:44;;;;;;;;;;;;;;;-0.94;100.00;92368.38;1061878;56;20662;-83
2021/01/28 04:39:44;;;;;;;;;;;;;;;-0.95;100.00;92371.37;1061859;56;20640;-84
2021/01/28 04:40:46;;;;;;;;;;;;;;;-1.03;100.00;92363.44;1062009;56;20181;-84
2021/01/28 04:41:48;;;;;;;;;;;;;;;-1.02;100.00;92358.94;1059706;56;20256;-84
2021/01/28 04:42:48;;;;;;;;;;;;;;;-0.98;100.00;92361.59;1061640;56;20194;-84
2021/01/28 04:43:50;;;;;;;;;;;;;;;-0.95;100.00;92360.88;1057428;56;20190;-84
2021/01/28 04:44:51;;;;;;;;;;;;;;;-0.90;100.00;92358.69;1057533;56;20603;-83
2021/01/28 04:45:54;;;;;;;;;;;;;;;-0.92;100.00;92353.06;1057460;56;20262;-87
2021/01/28 04:46:56;;;;;;;;;;;;;;;-1.01;100.00;92360.44;1059665;56;20563;-85
2021/01/28 04:47:59;;;;;;;;;;;;;;;-0.97;100.00;92352.62;1057550;56;20163;-83
2021/01/28 04:49:01;;;;;;;;;;;;;;;-0.96;100.00;92352.28;1057706;56;20151;-83
2021/01/28 04:50:03;;;;;;;;;;;;;;;-0.97;100.00;92345.50;1059660;56;20182;-86
2021/01/28 04:51:04;;;;;;;;;;;;;;;-0.92;100.00;92345.19;1061926;56;20712;-82
2021/01/28 04:52:05;;;;;;;;;;;;;;;-0.90;100.00;92342.19;1061813;56;20193;-84
2021/01/28 04:53:14;;;;;;;;;;;;;;;-0.92;100.00;92344.41;1057558;56;20169;-84
2021/01/28 04:54:22;;;;;;;;;;;;;;;-0.95;100.00;92339.91;1060010;56;20151;-83
2021/01/28 04:55:28;;;;;;;;;;;;;;;-0.91;100.00;92336.19;1059564;56;20166;-85
2021/01/28 04:56:29;;;;;;;;;;;;;;;-0.86;100.00;92335.09;1055794;56;20182;-84
2021/01/28 04:57:30;;;;;;;;;;;;;;;-0.86;100.00;92335.84;1057717;56;20191;-83
2021/01/28 04:58:30;;;;;;;;;;;;;;;-0.84;100.00;92332.84;1059774;56;20194;-84
2021/01/28 04:59:32;;;;;;;;;;;;;;;-0.87;100.00;92331.72;1059792;56;20158;-84
2021/01/28 05:00:32;;;;;;;;;;;;;;;-0.90;100.00;92329.06;1059735;56;20256;-84
2021/01/28 05:01:33;;;;;;;;;;;;;;;-0.85;100.00;92329.50;1059840;56;20250;-84
2021/01/28 05:02:33;;;;;;;;;;;;;;;-0.92;100.00;92324.19;1061988;56;20181;-83
2021/01/28 05:03:39;;;;;;;;;;;;;;;-0.82;100.00;92326.16;1059727;56;20190;-82
2021/01/28 05:04:41;;;;;;;;;;;;;;;-0.82;100.00;92322.78;1059726;56;20158;-85
2021/01/28 05:05:42;;;;;;;;;;;;;;;-0.76;100.00;92316.06;1059763;56;20171;-85
2021/01/28 05:06:43;;;;;;;;;;;;;;;-0.71;100.00;92315.72;1055629;56;20178;-84
2021/01/28 05:07:46;;;;;;;;;;;;;;;-0.70;100.00;92309.38;1060062;56;20587;-85
2021/01/28 05:08:46;;;;;;;;;;;;;;;-0.77;100.00;92309.31;1061753;56;20233;-83
2021/01/28 05:10:00;;;;;;;;;;;;;;;-0.72;100.00;92308.22;1057631;56;20238;-84
2021/01/28 05:11:00;;;;;;;;;;;;;;;-0.72;100.00;92298.47;1058487;56;20151;-83
2021/01/28 05:12:01;;;;;;;;;;;;;;;-0.79;100.00;92304.44;1061908;56;20775;-82
2021/01/28 05:13:01;;;;;;;;;;;;;;;-0.82;100.00;92299.16;1057719;56;20159;-83
2021/01/28 05:14:15;;;;;;;;;;;;;;;-0.74;100.00;92300.72;1059789;56;20256;-83
2021/01/28 05:15:17;;;;;;;;;;;;;;;-0.77;100.00;92301.44;1059732;56;20182;-84
2021/01/28 05:16:20;;;;;;;;;;;;;;;-0.72;100.00;92295.09;1057443;56;21182;-82
2021/01/28 05:17:26;;;;;;;;;;;;;;;-0.78;100.00;92299.94;1057825;56;20999;-81